Time;durP1;ratioP1;P1;durP2;ratioP2;P2;SDS_P1;SDS_P2;PMS_P1;PMS_P2;Temp;Humidity;BMP_temperature;BMP_pressure;BME280_temperature;BME280_humidity;BME280_pressure;Samples;Min_cycle;Max_cycle;Signal;HPM_P1;HPM_P2
2022/02/23 00:00:00;;;;;;;21.20;16.38;;;;;;;;;;342356;28;1243;-86
2022/02/23 00:00:11;;;;;;;21.60;16.73;;;;;;;;;;342592;28;1413;-85
2022/02/23 00:00:21;;;;;;;21.95;17.00;;;;;;;;;;342382;28;1334;-87
2022/02/23 00:00:32;;;;;;;23.87;17.73;;;;;;;;;;340117;28;1200;-86
2022/02/23 00:00:43;;;;;;;23.70;17.80;;;;;;;;;;339986;29;1377;-87
2022/02/23 00:00:53;;;;;;;22.85;18.00;;;;;;;;;;340180;29;934;-87
2022/02/23 00:01:04;;;;;;;21.03;17.70;;;;;;;;;;340104;29;793;-87
2022/02/23 00:01:14;;;;;;;20.35;17.48;;;;;;;;;;340894;28;1243;-86
2022/02/23 00:01:25;;;;;;;19.63;16.73;;;;;;;;;;342698;28;1303;-86
2022/02/23 00:01:35;;;;;;;20.65;16.55;;;;;;;;;;341416;28;1290;-88
2022/02/23 00:01:45;;;;;;;20.50;16.20;;;;;;;;;;341388;28;818;-87
2022/02/23 00:01:56;;;;;;;21.65;16.73;;;;;;;;;;342655;28;1359;-86
2022/02/23 00:02:06;;;;;;;21.87;16.73;;;;;;;;;;342510;28;819;-86
2022/02/23 00:02:17;;;;;;;22.20;16.63;;;;;;;;;;343379;28;1260;-87
2022/02/23 00:02:27;;;;;;;22.10;16.60;;;;;;;;;;342750;28;1295;-87
2022/02/23 00:02:37;;;;;;;21.20;16.90;;;;;;;;;;344062;28;1216;-86
2022/02/23 00:02:48;;;;;;;21.08;17.35;;;;;;;;;;342654;28;1331;-87
2022/02/23 00:02:58;;;;;;;21.93;17.80;;;;;;;;;;341340;28;1169;-86
2022/02/23 00:03:09;;;;;;;23.75;18.48;;;;;;;;;;341372;29;1233;-86
2022/02/23 00:03:20;;;;;;;24.15;18.55;;;;;;;;;;339565;28;1430;-86
2022/02/23 00:03:30;;;;;;;23.07;17.70;;;;;;;;;;342591;28;850;-86
2022/02/23 00:03:41;;;;;;;22.77;17.43;;;;;;;;;;342705;28;1307;-87
2022/02/23 00:03:51;;;;;;;22.93;17.40;;;;;;;;;;341385;28;1165;-87
2022/02/23 00:04:02;;;;;;;22.85;17.48;;;;;;;;;;340703;29;1334;-87
2022/02/23 00:04:13;;;;;;;22.83;17.38;;;;;;;;;;341421;29;906;-86
2022/02/23 00:04:23;;;;;;;23.07;17.57;;;;;;;;;;339609;29;1435;-86
2022/02/23 00:04:33;;;;;;;23.53;18.00;;;;;;;;;;341392;28;1331;-87
2022/02/23 00:04:44;;;;;;;23.13;17.47;;;;;;;;;;340012;28;1308;-87
2022/02/23 00:04:54;;;;;;;22.35;17.35;;;;;;;;;;342648;28;1272;-87
2022/02/23 00:05:06;;;;;;;22.77;17.30;;;;;;;;;;345011;28;1256;-88
2022/02/23 00:05:16;;;;;;;22.50;17.70;;;;;;;;;;343223;28;1410;-86
2022/02/23 00:05:26;;;;;;;22.60;17.83;;;;;;;;;;342689;28;1169;-87
2022/02/23 00:05:37;;;;;;;21.90;18.05;;;;;;;;;;342491;28;1185;-88
2022/02/23 00:05:47;;;;;;;23.50;17.97;;;;;;;;;;341333;28;1169;-87
2022/02/23 00:05:58;;;;;;;23.75;17.65;;;;;;;;;;341390;29;812;-87
2022/02/23 00:06:08;;;;;;;24.60;17.60;;;;;;;;;;341365;28;1181;-87
2022/02/23 00:06:19;;;;;;;23.17;17.45;;;;;;;;;;340885;29;1183;-86
2022/02/23 00:06:29;;;;;;;21.47;16.90;;;;;;;;;;341285;29;1074;-87
2022/02/23 00:06:40;;;;;;;20.60;16.73;;;;;;;;;;341423;28;1146;-87
2022/02/23 00:06:51;;;;;;;21.58;16.98;;;;;;;;;;341403;28;875;-86
2022/02/23 00:07:01;;;;;;;22.70;17.70;;;;;;;;;;341372;29;855;-87
2022/02/23 00:07:12;;;;;;;22.55;17.80;;;;;;;;;;341406;29;1189;-87
2022/02/23 00:07:22;;;;;;;23.60;18.00;;;;;;;;;;339747;29;1251;-87
2022/02/23 00:07:32;;;;;;;22.55;18.00;;;;;;;;;;340035;29;1154;-85
2022/02/23 00:07:43;;;;;;;22.80;17.87;;;;;;;;;;341047;29;1185;-87
2022/02/23 00:07:53;;;;;;;21.00;18.02;;;;;;;;;;341320;28;1339;-86
2022/02/23 00:08:04;;;;;;;21.27;17.70;;;;;;;;;;341523;29;816;-88
2022/02/23 00:08:14;;;;;;;19.95;17.73;;;;;;;;;;342670;28;1323;-87
2022/02/23 00:08:25;;;;;;;21.53;17.43;;;;;;;;;;342447;28;1204;-86
2022/02/23 00:08:35;;;;;;;22.20;17.77;;;;;;;;;;342814;28;879;-87
2022/02/23 00:08:45;;;;;;;23.50;17.50;;;;;;;;;;342770;28;1026;-88
2022/02/23 00:08:56;;;;;;;22.13;17.50;;;;;;;;;;341322;28;1391;-86
2022/02/23 00:09:06;;;;;;;22.70;17.65;;;;;;;;;;339806;29;1226;-86
2022/02/23 00:09:16;;;;;;;21.97;17.57;;;;;;;;;;339988;29;1172;-87
2022/02/23 00:09:27;;;;;;;22.38;17.63;;;;;;;;;;339787;29;1249;-86
2022/02/23 00:09:37;;;;;;;21.10;17.40;;;;;;;;;;341182;28;1312;-88
2022/02/23 00:09:48;;;;;;;21.07;17.50;;;;;;;;;;341346;28;1275;-87
2022/02/23 00:09:58;;;;;;;20.27;17.43;;;;;;;;;;341335;28;926;-87
2022/02/23 00:10:08;;;;;;;21.00;17.17;;;;;;;;;;341486;29;840;-87
2022/02/23 00:10:19;;;;;;;21.15;16.70;;;;;;;;;;341617;28;927;-88
2022/02/23 00:10:29;;;;;;;21.47;16.33;;;;;;;;;;342723;28;850;-85
2022/02/23 00:10:40;;;;;;;21.50;16.92;;;;;;;;;;341405;28;1204;-87
2022/02/23 00:10:50;;;;;;;22.50;17.77;;;;;;;;;;342351;28;1257;-87
2022/02/23 00:11:01;;;;;;;22.67;18.17;;;;;;;;;;342671;28;1918;-87
2022/02/23 00:11:12;;;;;;;22.92;17.52;;;;;;;;;;342711;28;844;-87
2022/02/23 00:11:22;;;;;;;23.13;17.40;;;;;;;;;;342708;28;1264;-86
2022/02/23 00:11:33;;;;;;;23.10;17.10;;;;;;;;;;342693;28;1181;-87
2022/02/23 00:11:43;;;;;;;22.65;16.83;;;;;;;;;;341925;28;1319;-87
2022/02/23 00:11:54;;;;;;;22.40;16.67;;;;;;;;;;341323;28;1204;-86
2022/02/23 00:12:04;;;;;;;22.77;16.63;;;;;;;;;;341094;29;1202;-87
2022/02/23 00:12:15;;;;;;;23.13;17.30;;;;;;;;;;341354;29;883;-87
2022/02/23 00:12:26;;;;;;;22.17;17.30;;;;;;;;;;341129;28;1245;-86
2022/02/23 00:12:37;;;;;;;20.38;17.13;;;;;;;;;;341417;28;1366;-87
2022/02/23 00:12:47;;;;;;;21.27;17.00;;;;;;;;;;341264;28;1201;-87
2022/02/23 00:12:57;;;;;;;22.80;17.37;;;;;;;;;;341345;29;824;-87
2022/02/23 00:13:08;;;;;;;23.13;17.20;;;;;;;;;;342536;28;1240;-85
2022/02/23 00:13:18;;;;;;;22.90;16.80;;;;;;;;;;342713;28;1177;-87
2022/02/23 00:13:29;;;;;;;21.77;16.27;;;;;;;;;;342744;28;840;-87
2022/02/23 00:13:39;;;;;;;22.17;16.57;;;;;;;;;;342456;28;1292;-86
2022/02/23 00:13:49;;;;;;;21.83;16.45;;;;;;;;;;342692;28;914;-87
2022/02/23 00:14:00;;;;;;;23.27;17.03;;;;;;;;;;342572;28;1299;-87
2022/02/23 00:14:10;;;;;;;22.47;17.07;;;;;;;;;;341410;28;1161;-86
2022/02/23 00:14:21;;;;;;;22.25;17.45;;;;;;;;;;339798;28;1375;-87
2022/02/23 00:14:31;;;;;;;20.53;16.63;;;;;;;;;;340076;29;1173;-87
2022/02/23 00:14:41;;;;;;;21.83;16.67;;;;;;;;;;341356;29;1216;-87
2022/02/23 00:14:52;;;;;;;22.77;17.17;;;;;;;;;;339665;29;1297;-88
2022/02/23 00:15:03;;;;;;;24.63;17.88;;;;;;;;;;338785;29;1256;-87
2022/02/23 00:15:13;;;;;;;23.33;17.83;;;;;;;;;;338815;29;828;-87
2022/02/23 00:15:24;;;;;;;22.52;17.27;;;;;;;;;;339791;29;1263;-87
2022/02/23 00:15:34;;;;;;;22.13;16.93;;;;;;;;;;340110;29;887;-87
2022/02/23 00:15:44;;;;;;;22.60;16.75;;;;;;;;;;339795;29;1261;-87
2022/02/23 00:15:55;;;;;;;23.03;16.83;;;;;;;;;;340023;29;974;-87
2022/02/23 00:16:06;;;;;;;21.58;16.75;;;;;;;;;;340093;29;1351;-87
2022/02/23 00:16:16;;;;;;;21.52;16.75;;;;;;;;;;340605;28;816;-88
2022/02/23 00:16:26;;;;;;;21.17;16.60;;;;;;;;;;342472;28;1247;-87
2022/02/23 00:16:37;;;;;;;22.55;17.05;;;;;;;;;;341155;28;1177;-87
2022/02/23 00:16:47;;;;;;;24.53;17.73;;;;;;;;;;341054;29;1253;-87
2022/02/23 00:16:58;;;;;;;23.47;17.53;;;;;;;;;;343180;28;1176;-88
2022/02/23 00:17:08;;;;;;;24.17;16.95;;;;;;;;;;342725;28;1346;-87
2022/02/23 00:17:20;;;;;;;22.90;16.70;;;;;;;;;;344036;28;1168;-87
2022/02/23 00:17:31;;;;;;;22.80;16.88;;;;;;;;;;344067;28;1370;-85
2022/02/23 00:17:41;;;;;;;21.57;16.70;;;;;;;;;;343843;28;1335;-87
2022/02/23 00:17:54;;;;;;;22.42;16.63;;;;;;;;;;342582;28;1192;-87
2022/02/23 00:18:09;;;;;;;21.15;16.17;;;;;;;;;;341329;28;1236;-87
2022/02/23 00:18:20;;;;;;;23.02;16.83;;;;;;;;;;339990;28;957;-86
2022/02/23 00:18:30;;;;;;;23.17;17.10;;;;;;;;;;339880;29;930;-85
2022/02/23 00:18:41;;;;;;;22.47;16.67;;;;;;;;;;339456;29;1194;-87
2022/02/23 00:18:51;;;;;;;19.77;16.02;;;;;;;;;;339904;29;835;-87
2022/02/23 00:19:02;;;;;;;19.90;16.00;;;;;;;;;;340117;29;1398;-87
2022/02/23 00:19:12;;;;;;;19.65;16.15;;;;;;;;;;342470;28;1191;-87
2022/02/23 00:19:23;;;;;;;22.77;16.67;;;;;;;;;;342401;28;1298;-87
2022/02/23 00:19:33;;;;;;;22.95;16.38;;;;;;;;;;344048;28;1279;-88
2022/02/23 00:19:44;;;;;;;23.30;17.00;;;;;;;;;;343625;28;1402;-87
2022/02/23 00:19:55;;;;;;;22.00;17.13;;;;;;;;;;342582;28;1278;-88
2022/02/23 00:20:05;;;;;;;22.95;17.58;;;;;;;;;;342551;28;1390;-87
2022/02/23 00:20:16;;;;;;;23.70;17.13;;;;;;;;;;342611;28;1264;-87
2022/02/23 00:20:27;;;;;;;23.03;17.27;;;;;;;;;;342340;28;1289;-87
2022/02/23 00:20:37;;;;;;;21.42;17.13;;;;;;;;;;342753;28;831;-87
2022/02/23 00:20:48;;;;;;;20.07;16.73;;;;;;;;;;342535;28;1276;-87
2022/02/23 00:20:58;;;;;;;19.25;16.13;;;;;;;;;;342453;28;1378;-87
2022/02/23 00:21:09;;;;;;;20.73;16.13;;;;;;;;;;343582;28;1269;-86
2022/02/23 00:21:19;;;;;;;21.30;16.93;;;;;;;;;;344095;28;815;-87
2022/02/23 00:21:30;;;;;;;23.05;17.35;;;;;;;;;;343782;28;1193;-86
2022/02/23 00:21:40;;;;;;;21.90;17.23;;;;;;;;;;344054;28;953;-87
2022/02/23 00:21:50;;;;;;;22.98;16.35;;;;;;;;;;343986;28;815;-87
2022/02/23 00:22:01;;;;;;;21.97;15.87;;;;;;;;;;344097;28;784;-87
2022/02/23 00:22:11;;;;;;;22.52;15.40;;;;;;;;;;343470;28;890;-86
2022/02/23 00:22:22;;;;;;;20.57;15.70;;;;;;;;;;342638;28;1282;-87
2022/02/23 00:22:34;;;;;;;21.73;15.85;;;;;;;;;;342762;28;816;-87
2022/02/23 00:22:44;;;;;;;23.23;16.60;;;;;;;;;;343244;28;1260;-87
2022/02/23 00:22:55;;;;;;;23.60;16.77;;;;;;;;;;343112;28;1211;-86
2022/02/23 00:23:05;;;;;;;22.17;16.83;;;;;;;;;;342826;28;1082;-86
2022/02/23 00:23:17;;;;;;;20.77;16.45;;;;;;;;;;343898;28;1370;-86
2022/02/23 00:23:27;;;;;;;19.67;16.05;;;;;;;;;;342936;28;899;-87
2022/02/23 00:23:38;;;;;;;20.10;16.10;;;;;;;;;;342802;28;820;-87
2022/02/23 00:23:48;;;;;;;20.73;15.73;;;;;;;;;;341069;28;1315;-85
2022/02/23 00:23:58;;;;;;;21.00;16.13;;;;;;;;;;341309;28;1413;-86
2022/02/23 00:24:09;;;;;;;20.55;16.33;;;;;;;;;;342597;28;1161;-88
2022/02/23 00:24:19;;;;;;;20.13;17.03;;;;;;;;;;342145;28;1192;-85
2022/02/23 00:24:30;;;;;;;21.45;17.30;;;;;;;;;;342566;28;875;-87
2022/02/23 00:24:40;;;;;;;22.43;16.90;;;;;;;;;;342464;28;1318;-84
2022/02/23 00:24:50;;;;;;;22.03;16.53;;;;;;;;;;342685;28;795;-85
2022/02/23 00:25:01;;;;;;;20.73;16.17;;;;;;;;;;342747;28;792;-88
2022/02/23 00:25:12;;;;;;;20.65;16.42;;;;;;;;;;342626;28;1196;-86
2022/02/23 00:25:23;;;;;;;20.30;15.93;;;;;;;;;;341274;29;1202;-88
2022/02/23 00:25:34;;;;;;;20.23;15.50;;;;;;;;;;342455;28;1307;-87
2022/02/23 00:25:44;;;;;;;20.08;15.82;;;;;;;;;;342543;28;859;-87
2022/02/23 00:25:55;;;;;;;21.65;16.77;;;;;;;;;;340033;28;1208;-86
2022/02/23 00:26:06;;;;;;;21.87;17.03;;;;;;;;;;339652;29;1362;-87
2022/02/23 00:26:16;;;;;;;23.08;17.08;;;;;;;;;;338358;29;1189;-86
2022/02/23 00:26:26;;;;;;;21.40;16.15;;;;;;;;;;338434;28;1244;-87
2022/02/23 00:26:37;;;;;;;21.80;16.17;;;;;;;;;;337463;29;1348;-87
2022/02/23 00:26:47;;;;;;;22.00;16.33;;;;;;;;;;338513;29;1149;-88
2022/02/23 00:26:58;;;;;;;21.97;16.57;;;;;;;;;;340024;28;1165;-88
2022/02/23 00:27:08;;;;;;;20.85;16.15;;;;;;;;;;342440;28;1288;-88
2022/02/23 00:27:18;;;;;;;20.07;16.17;;;;;;;;;;342585;28;1263;-87
2022/02/23 00:27:29;;;;;;;19.95;16.08;;;;;;;;;;342343;28;1200;-87
2022/02/23 00:27:39;;;;;;;21.00;16.47;;;;;;;;;;342794;28;843;-86
2022/02/23 00:27:50;;;;;;;19.80;16.10;;;;;;;;;;342483;28;1359;-86
2022/02/23 00:28:00;;;;;;;22.10;16.83;;;;;;;;;;342816;28;883;-88
2022/02/23 00:28:11;;;;;;;21.80;16.57;;;;;;;;;;343699;28;1351;-86
2022/02/23 00:28:21;;;;;;;22.75;16.30;;;;;;;;;;343992;28;1176;-87
2022/02/23 00:28:31;;;;;;;21.33;16.10;;;;;;;;;;342242;28;1185;-88
2022/02/23 00:28:42;;;;;;;21.25;16.20;;;;;;;;;;343875;28;1243;-87
2022/02/23 00:28:52;;;;;;;21.20;16.43;;;;;;;;;;343918;28;815;-85
2022/02/23 00:29:03;;;;;;;20.85;16.38;;;;;;;;;;344189;28;768;-87
2022/02/23 00:29:13;;;;;;;20.38;16.13;;;;;;;;;;342611;28;1239;-87
2022/02/23 00:29:24;;;;;;;21.57;16.63;;;;;;;;;;343292;28;855;-87
2022/02/23 00:29:35;;;;;;;21.27;16.67;;;;;;;;;;343645;28;1441;-85
2022/02/23 00:29:47;;;;;;;21.25;16.63;;;;;;;;;;343926;28;889;-88
2022/02/23 00:29:58;;;;;;;19.15;15.80;;;;;;;;;;344131;28;903;-88
2022/02/23 00:30:08;;;;;;;18.73;15.60;;;;;;;;;;344161;28;902;-87
2022/02/23 00:30:19;;;;;;;19.88;15.80;;;;;;;;;;342650;28;1212;-87
2022/02/23 00:30:29;;;;;;;20.77;16.30;;;;;;;;;;343410;28;799;-87
2022/02/23 00:30:39;;;;;;;23.53;16.60;;;;;;;;;;342919;28;1316;-85
2022/02/23 00:30:50;;;;;;;23.00;16.70;;;;;;;;;;341046;28;1260;-87
2022/02/23 00:31:00;;;;;;;24.15;17.20;;;;;;;;;;341222;28;1898;-87
2022/02/23 00:31:11;;;;;;;22.60;17.03;;;;;;;;;;341503;29;843;-87
2022/02/23 00:31:22;;;;;;;21.85;16.77;;;;;;;;;;342593;28;1361;-87
2022/02/23 00:31:32;;;;;;;21.05;16.27;;;;;;;;;;342356;28;1177;-85
2022/02/23 00:31:42;;;;;;;21.33;16.47;;;;;;;;;;342654;28;1164;-88
2022/02/23 00:31:53;;;;;;;22.38;16.75;;;;;;;;;;342640;28;894;-87
2022/02/23 00:32:04;;;;;;;23.20;17.03;;;;;;;;;;342795;28;807;-88
2022/02/23 00:32:14;;;;;;;23.58;17.10;;;;;;;;;;343343;28;827;-87
2022/02/23 00:32:24;;;;;;;21.83;16.83;;;;;;;;;;343896;28;1196;-87
2022/02/23 00:32:35;;;;;;;19.10;16.17;;;;;;;;;;343542;28;1350;-84
2022/02/23 00:32:45;;;;;;;18.63;16.47;;;;;;;;;;344932;28;1331;-87
2022/02/23 00:32:56;;;;;;;19.80;16.42;;;;;;;;;;343908;28;1220;-87
2022/02/23 00:33:06;;;;;;;21.13;16.70;;;;;;;;;;344161;28;926;-87
2022/02/23 00:33:17;;;;;;;21.75;16.55;;;;;;;;;;341231;28;1310;-87
2022/02/23 00:33:27;;;;;;;22.00;16.87;;;;;;;;;;340941;29;1145;-86
2022/02/23 00:33:37;;;;;;;22.15;17.00;;;;;;;;;;341229;29;1291;-88
2022/02/23 00:33:48;;;;;;;20.73;16.67;;;;;;;;;;342531;28;1204;-87
2022/02/23 00:33:58;;;;;;;20.50;16.55;;;;;;;;;;341207;28;1196;-85
2022/02/23 00:34:08;;;;;;;20.80;16.90;;;;;;;;;;341084;29;1291;-85
2022/02/23 00:34:19;;;;;;;22.17;17.43;;;;;;;;;;341139;29;879;-87
2022/02/23 00:34:29;;;;;;;22.13;17.50;;;;;;;;;;341054;29;1188;-88
2022/02/23 00:34:40;;;;;;;21.70;17.00;;;;;;;;;;341354;28;1161;-85
2022/02/23 00:34:50;;;;;;;20.50;16.77;;;;;;;;;;342604;28;1283;-87
2022/02/23 00:35:00;;;;;;;20.87;16.53;;;;;;;;;;341311;28;1160;-87
2022/02/23 00:35:11;;;;;;;22.40;16.93;;;;;;;;;;342438;28;1257;-88
2022/02/23 00:35:21;;;;;;;22.83;17.15;;;;;;;;;;341371;28;1301;-87
2022/02/23 00:35:31;;;;;;;22.07;17.07;;;;;;;;;;341248;29;816;-87
2022/02/23 00:35:42;;;;;;;21.15;16.75;;;;;;;;;;341379;29;955;-87
2022/02/23 00:35:52;;;;;;;20.90;16.43;;;;;;;;;;341298;28;1257;-87
2022/02/23 00:36:03;;;;;;;20.92;16.35;;;;;;;;;;341420;29;780;-85
2022/02/23 00:36:13;;;;;;;20.33;16.27;;;;;;;;;;342603;28;1193;-87
2022/02/23 00:36:23;;;;;;;20.17;16.27;;;;;;;;;;342631;28;1369;-87
2022/02/23 00:36:34;;;;;;;20.17;16.53;;;;;;;;;;343790;28;1208;-87
2022/02/23 00:36:45;;;;;;;20.10;16.65;;;;;;;;;;343966;28;807;-87
2022/02/23 00:36:55;;;;;;;20.47;17.10;;;;;;;;;;344008;28;1211;-87
2022/02/23 00:37:06;;;;;;;20.27;17.13;;;;;;;;;;343968;28;1298;-87
2022/02/23 00:37:16;;;;;;;20.03;17.00;;;;;;;;;;344057;28;886;-87
2022/02/23 00:37:27;;;;;;;19.88;16.55;;;;;;;;;;342698;28;1220;-87
2022/02/23 00:37:37;;;;;;;20.80;16.47;;;;;;;;;;342425;28;1255;-87
2022/02/23 00:37:47;;;;;;;20.67;16.30;;;;;;;;;;342541;28;1232;-87
2022/02/23 00:37:58;;;;;;;21.43;16.83;;;;;;;;;;342738;28;793;-86
2022/02/23 00:38:08;;;;;;;21.13;17.00;;;;;;;;;;341330;28;1270;-87
2022/02/23 00:38:18;;;;;;;21.60;17.15;;;;;;;;;;340014;29;1309;-87
2022/02/23 00:38:29;;;;;;;22.07;17.10;;;;;;;;;;340150;29;800;-87
2022/02/23 00:38:39;;;;;;;21.50;16.80;;;;;;;;;;339893;29;966;-86
2022/02/23 00:38:49;;;;;;;21.97;16.77;;;;;;;;;;341214;28;1365;-87
2022/02/23 00:39:00;;;;;;;21.20;16.50;;;;;;;;;;339977;29;1416;-88
2022/02/23 00:39:10;;;;;;;20.85;16.52;;;;;;;;;;340173;29;867;-87
2022/02/23 00:39:21;;;;;;;20.57;16.77;;;;;;;;;;340092;29;851;-88
2022/02/23 00:39:31;;;;;;;20.30;16.88;;;;;;;;;;338934;29;1452;-87
2022/02/23 00:39:42;;;;;;;20.35;16.95;;;;;;;;;;339880;29;1229;-86
2022/02/23 00:39:53;;;;;;;20.63;16.52;;;;;;;;;;341285;28;1204;-87
2022/02/23 00:40:03;;;;;;;20.17;16.23;;;;;;;;;;342650;28;1295;-87
2022/02/23 00:40:14;;;;;;;20.20;16.52;;;;;;;;;;341245;29;1425;-86
2022/02/23 00:40:24;;;;;;;20.07;16.67;;;;;;;;;;341381;29;1308;-87
2022/02/23 00:40:34;;;;;;;19.40;16.63;;;;;;;;;;342458;28;1451;-87
2022/02/23 00:40:45;;;;;;;20.07;16.47;;;;;;;;;;343863;28;1185;-87
2022/02/23 00:40:55;;;;;;;19.77;16.40;;;;;;;;;;343598;28;1272;-85
2022/02/23 00:41:06;;;;;;;20.38;16.02;;;;;;;;;;345206;28;1280;-88
2022/02/23 00:41:16;;;;;;;20.73;16.00;;;;;;;;;;343954;28;1200;-86
2022/02/23 00:41:26;;;;;;;20.92;15.77;;;;;;;;;;343965;28;1100;-88
2022/02/23 00:41:37;;;;;;;21.47;16.10;;;;;;;;;;342192;28;1223;-85
2022/02/23 00:41:47;;;;;;;21.25;15.82;;;;;;;;;;342385;28;1113;-87
2022/02/23 00:41:57;;;;;;;20.97;15.97;;;;;;;;;;342806;28;934;-87
2022/02/23 00:42:08;;;;;;;20.30;15.67;;;;;;;;;;343987;28;1197;-85
2022/02/23 00:42:18;;;;;;;19.55;15.45;;;;;;;;;;342652;28;1323;-88
2022/02/23 00:42:28;;;;;;;20.40;15.63;;;;;;;;;;342488;28;1314;-87
2022/02/23 00:42:39;;;;;;;20.30;15.88;;;;;;;;;;342136;28;1589;-88
2022/02/23 00:42:52;;;;;;;20.10;16.57;;;;;;;;;;342625;28;1205;-88
2022/02/23 00:43:06;;;;;;;20.10;16.75;;;;;;;;;;343968;28;1191;-87
2022/02/23 00:43:16;;;;;;;20.33;16.45;;;;;;;;;;343933;28;1212;-86
2022/02/23 00:43:27;;;;;;;22.17;16.33;;;;;;;;;;345393;28;1259;-88
2022/02/23 00:43:37;;;;;;;22.52;16.48;;;;;;;;;;345176;28;984;-85
2022/02/23 00:43:47;;;;;;;21.23;16.90;;;;;;;;;;345402;28;835;-86
2022/02/23 00:43:58;;;;;;;20.45;17.00;;;;;;;;;;345494;28;839;-87
2022/02/23 00:44:08;;;;;;;20.87;17.00;;;;;;;;;;344135;28;839;-88
2022/02/23 00:44:19;;;;;;;20.38;16.83;;;;;;;;;;342615;28;1215;-87
2022/02/23 00:44:29;;;;;;;22.37;17.17;;;;;;;;;;342688;28;1264;-87
2022/02/23 00:44:40;;;;;;;22.83;17.40;;;;;;;;;;342386;28;1397;-87
2022/02/23 00:44:50;;;;;;;22.47;17.10;;;;;;;;;;342567;28;1293;-88
2022/02/23 00:45:00;;;;;;;20.15;17.00;;;;;;;;;;342571;28;1370;-87
2022/02/23 00:45:11;;;;;;;20.40;16.70;;;;;;;;;;342627;28;1314;-87
2022/02/23 00:45:21;;;;;;;22.60;16.80;;;;;;;;;;342745;28;909;-87
2022/02/23 00:45:32;;;;;;;24.13;17.00;;;;;;;;;;344008;28;1354;-85
2022/02/23 00:45:42;;;;;;;23.80;17.15;;;;;;;;;;343821;28;1165;-87
2022/02/23 00:45:53;;;;;;;22.73;17.57;;;;;;;;;;343966;28;1286;-88
2022/02/23 00:46:03;;;;;;;22.10;17.40;;;;;;;;;;345210;28;1330;-87
2022/02/23 00:46:14;;;;;;;23.03;17.47;;;;;;;;;;343927;28;1279;-85
2022/02/23 00:46:24;;;;;;;22.35;17.27;;;;;;;;;;345129;28;1268;-87
2022/02/23 00:46:34;;;;;;;22.13;17.37;;;;;;;;;;345175;28;823;-87
2022/02/23 00:46:45;;;;;;;23.05;16.85;;;;;;;;;;345240;28;1176;-87
2022/02/23 00:46:55;;;;;;;23.27;16.67;;;;;;;;;;345417;28;1091;-88
2022/02/23 00:47:06;;;;;;;23.30;16.75;;;;;;;;;;345379;28;1151;-88
2022/02/23 00:47:16;;;;;;;21.23;16.80;;;;;;;;;;345422;28;855;-86
2022/02/23 00:47:27;;;;;;;20.85;16.95;;;;;;;;;;344042;28;1164;-87
2022/02/23 00:47:37;;;;;;;19.33;16.40;;;;;;;;;;345050;28;1285;-88
2022/02/23 00:47:47;;;;;;;19.50;16.23;;;;;;;;;;345330;28;946;-88
2022/02/23 00:47:58;;;;;;;19.98;16.17;;;;;;;;;;343935;28;1228;-87
2022/02/23 00:48:08;;;;;;;20.53;16.47;;;;;;;;;;344042;28;1275;-85
2022/02/23 00:48:18;;;;;;;20.33;16.67;;;;;;;;;;343584;28;796;-86
2022/02/23 00:48:29;;;;;;;21.03;16.60;;;;;;;;;;344036;28;1187;-86
2022/02/23 00:48:39;;;;;;;22.07;16.73;;;;;;;;;;343348;28;1399;-85
2022/02/23 00:48:49;;;;;;;24.92;16.75;;;;;;;;;;344065;28;840;-87
2022/02/23 00:49:00;;;;;;;23.83;16.77;;;;;;;;;;344155;28;839;-87
2022/02/23 00:49:10;;;;;;;22.73;16.80;;;;;;;;;;344042;28;1132;-87
2022/02/23 00:49:21;;;;;;;19.92;16.40;;;;;;;;;;342633;28;1256;-87
2022/02/23 00:49:31;;;;;;;20.83;16.48;;;;;;;;;;342702;28;784;-86
2022/02/23 00:49:42;;;;;;;21.10;16.33;;;;;;;;;;342421;28;1263;-88
2022/02/23 00:49:52;;;;;;;21.80;16.55;;;;;;;;;;342692;28;1207;-88
2022/02/23 00:50:03;;;;;;;22.10;16.83;;;;;;;;;;342650;28;1267;-87
2022/02/23 00:50:13;;;;;;;23.30;17.08;;;;;;;;;;341105;29;1185;-85
2022/02/23 00:50:23;;;;;;;22.27;17.20;;;;;;;;;;341804;28;1200;-86
2022/02/23 00:50:34;;;;;;;22.75;17.15;;;;;;;;;;344518;28;1266;-86
2022/02/23 00:50:44;;;;;;;22.10;16.60;;;;;;;;;;345121;28;891;-87
2022/02/23 00:50:54;;;;;;;22.97;16.93;;;;;;;;;;346424;28;1224;-87
2022/02/23 00:51:05;;;;;;;22.73;17.35;;;;;;;;;;346251;28;1991;-86
2022/02/23 00:51:15;;;;;;;23.17;17.67;;;;;;;;;;346578;28;1156;-87
2022/02/23 00:51:26;;;;;;;22.92;17.40;;;;;;;;;;346812;28;890;-86
2022/02/23 00:51:36;;;;;;;22.43;16.93;;;;;;;;;;344991;28;1310;-87
2022/02/23 00:51:47;;;;;;;21.70;16.63;;;;;;;;;;344979;28;1207;-87
2022/02/23 00:51:57;;;;;;;22.07;17.23;;;;;;;;;;345372;28;1259;-87
2022/02/23 00:52:07;;;;;;;20.90;16.90;;;;;;;;;;345363;28;1405;-86
2022/02/23 00:52:18;;;;;;;20.70;17.57;;;;;;;;;;342594;28;1307;-86
2022/02/23 00:52:28;;;;;;;21.27;17.67;;;;;;;;;;341189;28;1213;-87
2022/02/23 00:52:38;;;;;;;23.20;18.13;;;;;;;;;;340929;28;1125;-87
2022/02/23 00:52:49;;;;;;;22.43;17.73;;;;;;;;;;341408;28;930;-87
2022/02/23 00:52:59;;;;;;;23.92;16.77;;;;;;;;;;339858;29;1278;-85
2022/02/23 00:53:09;;;;;;;22.50;16.30;;;;;;;;;;341415;28;1181;-86
2022/02/23 00:53:20;;;;;;;22.37;16.50;;;;;;;;;;342506;28;1319;-87
2022/02/23 00:53:30;;;;;;;20.20;17.02;;;;;;;;;;342708;28;796;-86
2022/02/23 00:53:40;;;;;;;20.40;17.07;;;;;;;;;;342472;28;852;-87
2022/02/23 00:53:51;;;;;;;22.45;17.25;;;;;;;;;;342689;28;800;-86
2022/02/23 00:54:01;;;;;;;23.07;17.30;;;;;;;;;;341344;28;1303;-87
2022/02/23 00:54:11;;;;;;;23.57;18.00;;;;;;;;;;342605;28;1357;-87
2022/02/23 00:54:22;;;;;;;22.65;17.75;;;;;;;;;;343027;28;772;-87
2022/02/23 00:54:34;;;;;;;22.47;18.17;;;;;;;;;;343790;28;1223;-87
2022/02/23 00:54:44;;;;;;;22.60;17.70;;;;;;;;;;342362;28;1374;-86
2022/02/23 00:54:54;;;;;;;22.07;17.43;;;;;;;;;;341341;28;1269;-87
2022/02/23 00:55:05;;;;;;;22.20;17.38;;;;;;;;;;339886;29;1256;-87
2022/02/23 00:55:15;;;;;;;21.40;17.30;;;;;;;;;;339717;29;1189;-86
2022/02/23 00:55:25;;;;;;;21.45;17.38;;;;;;;;;;339900;29;1281;-87
2022/02/23 00:55:36;;;;;;;20.77;16.97;;;;;;;;;;339996;29;820;-87
2022/02/23 00:55:46;;;;;;;20.73;16.73;;;;;;;;;;339766;29;939;-87
2022/02/23 00:55:56;;;;;;;21.20;16.48;;;;;;;;;;338833;29;1190;-87
2022/02/23 00:56:07;;;;;;;21.00;16.33;;;;;;;;;;339093;29;825;-87
2022/02/23 00:56:17;;;;;;;22.70;16.97;;;;;;;;;;338851;29;1348;-87
2022/02/23 00:56:27;;;;;;;21.83;17.17;;;;;;;;;;338829;29;1264;-85
2022/02/23 00:56:38;;;;;;;21.77;17.07;;;;;;;;;;339123;29;793;-85
2022/02/23 00:56:49;;;;;;;19.45;16.33;;;;;;;;;;341982;28;1320;-87
2022/02/23 00:56:59;;;;;;;21.42;17.02;;;;;;;;;;343521;28;884;-86
2022/02/23 00:57:09;;;;;;;21.57;17.40;;;;;;;;;;344579;28;1274;-87
2022/02/23 00:57:20;;;;;;;22.67;17.63;;;;;;;;;;345703;28;772;-87
2022/02/23 00:57:30;;;;;;;20.90;16.70;;;;;;;;;;345518;28;1299;-87
2022/02/23 00:57:40;;;;;;;19.93;16.27;;;;;;;;;;345476;28;795;-87
2022/02/23 00:57:51;;;;;;;19.83;16.17;;;;;;;;;;344656;28;1204;-87
2022/02/23 00:58:01;;;;;;;20.77;16.53;;;;;;;;;;344326;28;1227;-87
2022/02/23 00:58:11;;;;;;;21.23;16.90;;;;;;;;;;344054;28;1162;-87
2022/02/23 00:58:22;;;;;;;21.42;17.10;;;;;;;;;;342641;28;1331;-86
2022/02/23 00:58:32;;;;;;;21.73;17.07;;;;;;;;;;342809;28;1280;-87
2022/02/23 00:58:42;;;;;;;21.97;17.03;;;;;;;;;;342761;28;775;-87
2022/02/23 00:58:52;;;;;;;22.20;17.50;;;;;;;;;;343006;28;816;-87
2022/02/23 00:59:03;;;;;;;22.27;17.90;;;;;;;;;;342987;28;1216;-87
2022/02/23 00:59:13;;;;;;;22.97;18.00;;;;;;;;;;344091;28;1260;-86
2022/02/23 00:59:24;;;;;;;22.35;17.40;;;;;;;;;;344281;28;807;-86
2022/02/23 00:59:34;;;;;;;22.33;17.47;;;;;;;;;;344176;28;1335;-86
2022/02/23 00:59:45;;;;;;;21.88;17.20;;;;;;;;;;342878;28;1228;-85
2022/02/23 00:59:55;;;;;;;21.97;17.47;;;;;;;;;;342951;28;1081;-86
2022/02/23 01:00:06;;;;;;;20.80;17.10;;;;;;;;;;343041;28;851;-87
2022/02/23 01:00:17;;;;;;;20.73;16.63;;;;;;;;;;341542;28;1188;-88
2022/02/23 01:00:27;;;;;;;20.70;16.10;;;;;;;;;;341501;28;1315;-87
2022/02/23 01:00:37;;;;;;;21.43;15.97;;;;;;;;;;341662;29;902;-87
2022/02/23 01:00:48;;;;;;;21.53;16.50;;;;;;;;;;340034;29;1305;-85
2022/02/23 01:00:58;;;;;;;22.60;16.80;;;;;;;;;;340233;29;1379;-85
2022/02/23 01:01:09;;;;;;;22.27;16.97;;;;;;;;;;340915;29;918;-85
2022/02/23 01:01:19;;;;;;;23.48;17.10;;;;;;;;;;340263;29;1287;-88
2022/02/23 01:01:29;;;;;;;24.80;17.47;;;;;;;;;;340115;28;1374;-87
2022/02/23 01:01:41;;;;;;;25.42;17.85;;;;;;;;;;341929;28;1177;-87
2022/02/23 01:01:51;;;;;;;25.40;18.13;;;;;;;;;;341559;28;1267;-87
2022/02/23 01:02:01;;;;;;;23.93;17.97;;;;;;;;;;342709;28;1403;-87
2022/02/23 01:02:12;;;;;;;22.58;17.45;;;;;;;;;;343089;28;800;-88
2022/02/23 01:02:22;;;;;;;21.77;17.10;;;;;;;;;;341543;28;1165;-87
2022/02/23 01:02:32;;;;;;;22.00;16.93;;;;;;;;;;342685;28;1085;-88
2022/02/23 01:02:43;;;;;;;22.33;17.25;;;;;;;;;;341307;28;1220;-88
2022/02/23 01:02:53;;;;;;;22.17;17.23;;;;;;;;;;341430;28;1129;-85
2022/02/23 01:03:03;;;;;;;21.10;17.13;;;;;;;;;;341485;29;749;-87